Terminal Aerodrome Forecast
Issued by NWS

Home | Current Version | Previous Version | Text Only | Print | Product List | Glossary On
Versions: 1 2 3 4 5 6 7 8 9 10 11 12 13 14
000
FTUS44 KCRP 040156 AAA
TAFALI
TAF AMD
KALI 040156Z 0402/0424 14011KT P6SM FEW040
     FM040500 14007KT P6SM BKN015 BKN060
     FM040900 14004KT 5SM BR OVC011
     FM041500 14015KT P6SM SCT025 BKN060
     FM042100 15018G24KT P6SM SCT040 BKN070=

USA.gov is the U.S. government's official web portal to all federal, state and local government web resources and services.